Terminal Aerodrome Forecast
Issued by NWS Huntsville, AL

Home | Current Version | Previous Version | Text Only | Print | Product List | Glossary On
Versions: 1 2 3 4 5 6 7 8 9 10 11 12 13
000
FTUS44 KHUN 171135
TAFHSV
TAF
KHSV 171135Z 1712/1812 VRB03KT P6SM SCT030 OVC050
     FM171400 13008KT 5SM -RA BR SCT010 OVC020
      TEMPO 1714/1717 14010G14KT 2SM RA BR OVC007
     FM171700 13012KT 4SM -RA OVC025
     FM172000 13012KT 6SM BR OVC015
     FM172100 12005KT 4SM HZ BR OVC007
     FM180500 11003KT 1 1/2SM BR OVC003=

USA.gov is the U.S. government's official web portal to all federal, state and local government web resources and services.